Terminal Aerodrome Forecast
Issued by NWS

Home | Current Version | Previous Version | Text Only | Print | Product List | Glossary On
Versions: 1 2 3 4 5 6 7 8 9 10 11 12 13 14 15 16 17 18 19 20 21 22
000
FTUS43 KJKL 290539
TAFSME
TAF
KSME 290539Z 2906/3006 28003KT 6SM BR OVC005
     FM290800 00000KT 4SM BR OVC003
     FM291000 00000KT 1/2SM FG OVC003
     FM291400 30004KT P6SM VCSH OVC007
     FM292000 VRB03KT P6SM VCSH BKN050
     FM300400 00000KT 4SM BR OVC050=

USA.gov is the U.S. government's official web portal to all federal, state and local government web resources and services.